createdAt,value
2022-08-14T00:02:57.833Z,101368.59
2022-08-14T00:09:32.916Z,101368.34
2022-08-14T00:15:56.237Z,101361.59
2022-08-14T00:50:00.388Z,101319.53
2022-08-14T00:57:01.953Z,101320.06
2022-08-14T01:16:19.406Z,101299.25
2022-08-14T01:23:18.814Z,101291.16
2022-08-14T01:29:59.181Z,101282.22
2022-08-14T01:36:05.063Z,101271.00
2022-08-14T01:39:09.711Z,101273.84
2022-08-14T01:42:36.113Z,101265.09
2022-08-14T01:49:02.035Z,101255.16
2022-08-14T01:55:20.082Z,101257.22
2022-08-14T01:58:28.806Z,101247.06
2022-08-14T02:10:18.249Z,101236.31
2022-08-14T02:13:30.775Z,101238.66
2022-08-14T02:18:26.333Z,101233.97
2022-08-14T02:19:10.309Z,101232.53
2022-08-14T02:21:43.362Z,101240.13
2022-08-14T02:28:23.172Z,101239.91
2022-08-14T02:31:19.235Z,101237.16
2022-08-14T02:40:34.255Z,101237.78
2022-08-14T02:42:59.999Z,101237.09
2022-08-14T02:49:02.791Z,101232.88
2022-08-14T02:51:30.231Z,101227.44
2022-08-14T02:54:00.948Z,101234.59
2022-08-14T02:59:52.760Z,101227.88
2022-08-14T03:02:48.570Z,101223.97
2022-08-14T03:05:12.319Z,101230.03
2022-08-14T03:07:40.842Z,101219.13
2022-08-14T03:10:36.996Z,101221.06
2022-08-14T03:16:50.905Z,101221.59
2022-08-14T03:19:40.484Z,101219.63
2022-08-14T03:22:44.563Z,101217.31
2022-08-14T03:27:47.833Z,101219.78
2022-08-14T03:33:12.196Z,101221.84
2022-08-14T03:36:05.708Z,101211.25
2022-08-14T03:39:13.038Z,101213.22
2022-08-14T03:41:23.337Z,101206.59
2022-08-14T03:44:01.099Z,101205.81
2022-08-14T03:46:51.976Z,101201.94
2022-08-14T03:49:29.468Z,101200.03
2022-08-14T03:52:00.732Z,101202.03
2022-08-14T03:54:28.172Z,101194.53
2022-08-14T03:56:55.041Z,101191.09
2022-08-14T03:59:25.043Z,101190.31
2022-08-14T04:02:01.945Z,101193.16
2022-08-14T04:04:30.822Z,101198.59
2022-08-14T04:06:59.461Z,101193.06
2022-08-14T04:09:27.225Z,101190.31
2022-08-14T04:11:56.141Z,101195.41
2022-08-14T04:14:29.027Z,101201.25
2022-08-14T04:16:58.246Z,101200.16
2022-08-14T04:19:28.207Z,101197.81
2022-08-14T04:22:03.591Z,101199.81
2022-08-14T04:24:38.177Z,101193.53
2022-08-14T04:27:11.567Z,101193.94
2022-08-14T04:29:42.573Z,101188.84
2022-08-14T04:32:57.387Z,101186.88
2022-08-14T04:34:57.413Z,101186.88
2022-08-14T04:37:53.639Z,101183.00
2022-08-14T04:40:40.422Z,101185.75
2022-08-14T04:43:25.935Z,101181.03
2022-08-14T04:45:53.013Z,101176.28
2022-08-14T04:48:39.027Z,101174.72
2022-08-14T04:51:11.331Z,101183.78
2022-08-14T04:53:43.855Z,101182.56
2022-08-14T04:56:30.847Z,101182.91
2022-08-14T04:59:10.572Z,101172.66
2022-08-14T05:01:44.720Z,101179.38
2022-08-14T05:04:16.093Z,101171.13
2022-08-14T05:06:43.084Z,101168.69
2022-08-14T05:09:14.110Z,101163.06
2022-08-14T05:11:41.325Z,101166.16
2022-08-14T05:14:33.957Z,101166.53
2022-08-14T05:17:01.712Z,101164.88
2022-08-14T05:19:29.829Z,101158.59
2022-08-14T05:22:15.517Z,101152.66
2022-08-14T05:24:45.727Z,101156.09
2022-08-14T05:27:16.700Z,101156.75
2022-08-14T05:29:44.830Z,101159.78
2022-08-14T05:32:13.459Z,101154.09
2022-08-14T05:34:41.758Z,101149.25
2022-08-14T05:37:15.481Z,101151.81
2022-08-14T05:39:42.840Z,101148.06
2022-08-14T05:42:21.377Z,101154.81
2022-08-14T05:45:14.498Z,101147.09
2022-08-14T05:47:46.702Z,101150.31
2022-08-14T05:56:26.995Z,101144.22
2022-08-14T06:06:33.802Z,101137.06
2022-08-14T06:09:26.458Z,101147.53
2022-08-14T06:11:53.319Z,101137.16
2022-08-14T06:14:23.795Z,101137.06
2022-08-14T06:19:53.292Z,101138.34
2022-08-14T06:22:49.593Z,101139.75
2022-08-14T06:25:53.548Z,101140.94
2022-08-14T06:28:45.564Z,101139.56
2022-08-14T06:48:49.434Z,101141.38
2022-08-14T06:58:47.607Z,101144.00
2022-08-14T07:08:43.225Z,101137.56
2022-08-14T07:11:11.085Z,101123.69
2022-08-14T07:13:39.284Z,101126.44
2022-08-14T07:16:06.809Z,101128.13
2022-08-14T07:18:35.497Z,101120.56
2022-08-14T07:21:04.550Z,101116.06
2022-08-14T07:23:31.603Z,101116.06
2022-08-14T07:26:02.122Z,101113.63
2022-08-14T07:28:33.469Z,101118.22
2022-08-14T07:31:05.848Z,101125.34
2022-08-14T07:33:38.017Z,101121.19
2022-08-14T07:36:26.652Z,101115.94
2022-08-14T07:38:56.179Z,101118.56
2022-08-14T07:41:22.909Z,101121.19
2022-08-14T07:43:55.223Z,101122.13
2022-08-14T07:46:29.380Z,101116.25
2022-08-14T07:48:58.461Z,101113.47
2022-08-14T07:51:26.072Z,101117.19
2022-08-14T07:54:01.153Z,101113.66
2022-08-14T07:56:47.762Z,101115.63
2022-08-14T07:59:18.466Z,101112.25
2022-08-14T08:01:48.214Z,101114.25
2022-08-14T08:04:25.352Z,101110.72
2022-08-14T08:06:54.866Z,101107.00
2022-08-14T08:09:31.980Z,101111.63
2022-08-14T08:12:04.948Z,101103.91
2022-08-14T08:14:55.825Z,101112.84
2022-08-14T08:17:24.291Z,101105.28
2022-08-14T08:19:51.447Z,101101.28
2022-08-14T08:22:21.258Z,101102.38
2022-08-14T08:24:50.230Z,101089.84
2022-08-14T08:27:18.061Z,101095.72
2022-08-14T08:29:50.535Z,101092.75
2022-08-14T08:32:17.474Z,101093.22
2022-08-14T08:34:46.111Z,101089.03
2022-08-14T08:37:13.911Z,101089.78
2022-08-14T08:40:01.787Z,101088.97
2022-08-14T08:42:31.649Z,101081.66
2022-08-14T08:45:06.637Z,101082.56
2022-08-14T08:47:39.979Z,101074.56
2022-08-14T08:50:22.832Z,101073.16
2022-08-14T08:52:52.807Z,101073.59
2022-08-14T08:55:28.939Z,101082.41
2022-08-14T08:57:59.166Z,101083.47
2022-08-14T09:00:29.937Z,101085.78
2022-08-14T09:03:06.194Z,101088.50
2022-08-14T09:05:35.048Z,101084.75
2022-08-14T09:08:31.551Z,101078.09
2022-08-14T09:11:19.363Z,101079.16
2022-08-14T09:13:51.476Z,101069.59
2022-08-14T09:16:25.859Z,101059.38
2022-08-14T09:18:53.944Z,101052.88
2022-08-14T09:21:24.249Z,101059.91
2022-08-14T09:24:26.089Z,101059.16
2022-08-14T09:26:43.756Z,101052.44
2022-08-14T09:29:12.327Z,101055.44
2022-08-14T09:31:52.908Z,101060.25
2022-08-14T09:34:36.863Z,101056.59
2022-08-14T09:37:37.245Z,101055.81
2022-08-14T09:40:16.766Z,101037.78
2022-08-14T09:43:22.429Z,101037.50
2022-08-14T09:45:53.316Z,101032.22
2022-08-14T09:48:30.141Z,101030.09
2022-08-14T09:54:19.133Z,101024.81
2022-08-14T09:56:31.112Z,101017.31
2022-08-14T09:59:00.321Z,101015.69
2022-08-14T10:01:37.604Z,101016.56
2022-08-14T10:04:34.745Z,101007.25
2022-08-14T10:07:03.642Z,101003.88
2022-08-14T10:09:34.724Z,100997.97
2022-08-14T10:12:04.660Z,100998.06
2022-08-14T10:14:36.623Z,100994.50
2022-08-14T10:17:08.290Z,100985.38
2022-08-14T10:19:36.441Z,100985.94
2022-08-14T10:23:11.984Z,100985.88
2022-08-14T10:24:54.749Z,100978.22
2022-08-14T10:27:26.557Z,100977.28
2022-08-14T10:30:22.199Z,100973.09
2022-08-14T10:32:53.683Z,100972.59
2022-08-14T10:38:36.665Z,100966.66
2022-08-14T10:41:13.179Z,100959.84
2022-08-14T10:43:42.211Z,100958.91
2022-08-14T10:47:37.303Z,100956.44
2022-08-14T10:49:04.958Z,100954.75
2022-08-14T10:51:39.587Z,100948.16
2022-08-14T10:54:25.922Z,100948.66
2022-08-14T10:56:57.479Z,100948.00
2022-08-14T10:59:35.470Z,100944.09
2022-08-14T11:02:17.621Z,100944.88
2022-08-14T11:05:00.990Z,100940.31
2022-08-14T11:07:32.116Z,100943.66
2022-08-14T11:10:01.848Z,100936.41
2022-08-14T11:12:41.132Z,100938.72
2022-08-14T11:15:08.977Z,100926.56
2022-08-14T11:17:37.200Z,100928.41
2022-08-14T11:20:13.702Z,100935.59
2022-08-14T11:22:55.765Z,100931.34
2022-08-14T11:25:43.257Z,100931.88
2022-08-14T11:28:14.779Z,100922.75
2022-08-14T11:30:53.822Z,100926.88
2022-08-14T11:33:24.611Z,100923.13
2022-08-14T11:35:51.584Z,100917.28
2022-08-14T11:38:21.342Z,100909.94
2022-08-14T11:40:49.202Z,100906.13
2022-08-14T11:43:16.475Z,100912.47
2022-08-14T11:45:48.653Z,100900.25
2022-08-14T11:49:02.082Z,100904.84
2022-08-14T11:51:13.019Z,100908.69
2022-08-14T11:53:42.255Z,100900.56
2022-08-14T11:56:09.047Z,100902.19
2022-08-14T11:58:38.188Z,100905.25
2022-08-14T12:01:07.412Z,100909.84
2022-08-14T12:03:51.277Z,100906.56
2022-08-14T12:06:28.889Z,100903.00
2022-08-14T12:09:08.645Z,100903.28
2022-08-14T12:11:47.318Z,100900.47
2022-08-14T12:14:34.499Z,100899.97
2022-08-14T12:17:09.408Z,100901.75
2022-08-14T12:19:51.528Z,100888.53
2022-08-14T12:22:33.931Z,100885.75
2022-08-14T12:25:01.782Z,100878.63
2022-08-14T12:27:52.517Z,100874.28
2022-08-14T12:30:43.031Z,100873.78
2022-08-14T12:33:30.688Z,100861.56
2022-08-14T12:36:04.236Z,100851.84
2022-08-14T12:38:36.017Z,100851.59
2022-08-14T12:41:06.332Z,100845.75
2022-08-14T12:43:45.099Z,100836.84
2022-08-14T12:46:26.920Z,100834.03
2022-08-14T12:48:55.731Z,100827.44
2022-08-14T12:51:27.074Z,100822.84
2022-08-14T12:53:56.604Z,100820.28
2022-08-14T12:56:33.888Z,100822.31
2022-08-14T12:59:02.423Z,100818.50
2022-08-14T13:01:56.821Z,100810.88
2022-08-14T13:04:19.544Z,100804.50
2022-08-14T13:06:51.126Z,100808.31
2022-08-14T13:09:19.006Z,100801.16
2022-08-14T13:11:58.669Z,100801.66
2022-08-14T13:14:38.388Z,100801.66
2022-08-14T13:17:05.517Z,100796.56
2022-08-14T13:19:35.031Z,100798.38
2022-08-14T13:22:09.430Z,100798.16
2022-08-14T13:24:38.752Z,100805.78
2022-08-14T13:27:06.618Z,100792.81
2022-08-14T13:29:40.754Z,100793.06
2022-08-14T13:32:10.836Z,100786.75
2022-08-14T13:34:38.196Z,100784.69
2022-08-14T13:37:07.168Z,100788.03
2022-08-14T13:39:36.671Z,100784.44
2022-08-14T13:42:08.695Z,100782.41
2022-08-14T13:44:42.624Z,100775.78
2022-08-14T13:47:10.734Z,100774.50
2022-08-14T13:49:40.408Z,100769.16
2022-08-14T13:52:51.828Z,100774.25
2022-08-14T13:55:13.398Z,100769.41
2022-08-14T13:57:49.368Z,100764.56
2022-08-14T14:00:32.840Z,100765.09
2022-08-14T14:03:05.257Z,100756.69
2022-08-14T14:05:53.716Z,100763.31
2022-08-14T14:08:46.045Z,100755.91
2022-08-14T14:11:09.991Z,100748.53
2022-08-14T14:13:42.008Z,100759.50
2022-08-14T14:16:14.895Z,100750.31
2022-08-14T14:18:43.839Z,100749.00
2022-08-14T14:21:13.985Z,100751.53
2022-08-14T14:23:42.854Z,100754.81
2022-08-14T14:26:13.822Z,100747.69
2022-08-14T14:28:41.633Z,100744.88
2022-08-14T14:31:11.427Z,100744.34
2022-08-14T14:33:47.849Z,100736.94
2022-08-14T14:36:20.730Z,100747.88
2022-08-14T14:38:53.355Z,100737.69
2022-08-14T14:41:23.115Z,100737.97
2022-08-14T14:43:51.938Z,100736.94
2022-08-14T14:46:20.382Z,100746.63
2022-08-14T14:48:54.617Z,100729.06
2022-08-14T14:51:21.833Z,100727.06
2022-08-14T14:53:48.455Z,100724.25
2022-08-14T14:56:49.955Z,100729.13
2022-08-14T14:59:01.985Z,100726.03
2022-08-14T15:01:28.755Z,100722.22
2022-08-14T15:03:56.444Z,100715.81
2022-08-14T15:06:30.288Z,100716.31
2022-08-14T15:09:00.002Z,100714.50
2022-08-14T15:11:30.422Z,100715.75
2022-08-14T15:14:00.001Z,100713.72
2022-08-14T15:16:27.685Z,100711.69
2022-08-14T15:18:54.680Z,100713.94
2022-08-14T15:21:23.623Z,100707.81
2022-08-14T15:23:50.581Z,100703.72
2022-08-14T15:26:24.406Z,100701.94
2022-08-14T15:29:06.933Z,100699.34
2022-08-14T15:31:36.577Z,100690.94
2022-08-14T15:34:42.173Z,100690.69
2022-08-14T15:36:57.814Z,100696.81
2022-08-14T15:39:24.361Z,100692.72
2022-08-14T15:41:51.023Z,100695.78
2022-08-14T15:44:26.471Z,100697.03
2022-08-14T15:46:56.426Z,100690.44
2022-08-14T15:49:31.231Z,100692.47
2022-08-14T15:52:03.267Z,100683.31
2022-08-14T15:54:31.302Z,100685.88
2022-08-14T15:57:01.481Z,100678.50
2022-08-14T15:59:49.576Z,100688.94
2022-08-14T16:02:16.731Z,100678.50
2022-08-14T16:04:45.854Z,100680.53
2022-08-14T16:07:18.416Z,100670.06
2022-08-14T16:09:54.269Z,100673.41
2022-08-14T16:12:41.699Z,100667.56
2022-08-14T16:15:13.794Z,100666.56
2022-08-14T16:17:44.171Z,100668.88
2022-08-14T16:20:12.155Z,100671.19
2022-08-14T16:23:10.671Z,100669.16
2022-08-14T16:25:35.463Z,100662.56
2022-08-14T16:28:03.410Z,100670.66
2022-08-14T16:30:34.304Z,100662.25
2022-08-14T16:33:07.153Z,100659.47
2022-08-14T16:35:42.245Z,100659.22
2022-08-14T16:38:45.688Z,100657.97
2022-08-14T16:41:26.314Z,100651.59
2022-08-14T16:43:58.975Z,100655.91
2022-08-14T16:46:26.546Z,100653.13
2022-08-14T16:48:58.300Z,100647.06
2022-08-14T16:51:26.142Z,100646.50
2022-08-14T16:53:55.452Z,100642.47
2022-08-14T16:56:25.366Z,100638.66
2022-08-14T16:59:12.343Z,100637.91
2022-08-14T17:01:42.657Z,100637.41
2022-08-14T17:04:14.947Z,100631.56
2022-08-14T17:06:53.058Z,100631.13
2022-08-14T17:09:33.551Z,100633.16
2022-08-14T17:12:28.271Z,100629.38
2022-08-14T17:15:10.059Z,100626.63
2022-08-14T17:17:38.472Z,100623.28
2022-08-14T17:20:08.874Z,100631.69
2022-08-14T17:22:57.467Z,100619.53
2022-08-14T17:25:30.015Z,100618.78
2022-08-14T17:28:49.965Z,100617.50
2022-08-14T17:31:04.568Z,100608.63
2022-08-14T17:33:40.874Z,100619.31
2022-08-14T17:36:21.812Z,100606.34
2022-08-14T17:39:06.819Z,100616.03
2022-08-14T17:41:43.606Z,100612.25
2022-08-14T17:44:34.191Z,100606.38
2022-08-14T17:47:10.085Z,100609.19
2022-08-14T17:49:45.457Z,100610.72
2022-08-14T17:52:17.147Z,100608.16
2022-08-14T17:54:52.703Z,100608.16
2022-08-14T17:57:28.354Z,100600.53
2022-08-14T17:59:56.943Z,100609.19
2022-08-14T18:02:31.230Z,100612.47
2022-08-14T18:05:03.240Z,100611.75
2022-08-14T18:08:31.553Z,100606.63
2022-08-14T18:10:51.681Z,100615.03
2022-08-14T18:13:08.001Z,100608.38
2022-08-14T18:15:39.130Z,100607.59
2022-08-14T18:18:11.221Z,100612.16
2022-08-14T18:21:39.603Z,100606.31
2022-08-14T18:23:26.516Z,100613.91
2022-08-14T18:25:56.586Z,100612.38
2022-08-14T18:28:46.553Z,100606.78
2022-08-14T18:31:44.042Z,100603.97
2022-08-14T18:34:32.038Z,100612.34
2022-08-14T18:37:14.357Z,100602.16
2022-08-14T18:40:03.567Z,100602.13
2022-08-14T18:42:35.030Z,100608.44
2022-08-14T18:45:01.874Z,100607.91
2022-08-14T18:47:56.638Z,100606.09
2022-08-14T18:50:27.948Z,100601.72
2022-08-14T18:53:07.080Z,100602.47
2022-08-14T18:55:33.619Z,100601.19
2022-08-14T18:58:00.839Z,100602.69
2022-08-14T19:00:39.739Z,100606.19
2022-08-14T19:03:09.766Z,100608.72
2022-08-14T19:05:47.878Z,100607.19
2022-08-14T19:08:26.522Z,100609.72
2022-08-14T19:10:57.355Z,100614.00
2022-08-14T19:13:27.111Z,100612.44
2022-08-14T19:16:13.324Z,100616.44
2022-08-14T19:18:50.219Z,100606.75
2022-08-14T19:22:46.266Z,100614.84
2022-08-14T20:24:40.259Z,100602.09
